Time;durP1;ratioP1;P1;durP2;ratioP2;P2;SDS_P1;SDS_P2;PMS_P1;PMS_P2;Temp;Humidity;BMP_temperature;BMP_pressure;BME280_temperature;BME280_humidity;BME280_pressure;Samples;Min_cycle;Max_cycle;Signal;HPM_P1;HPM_P2
2022/11/23 00:00:39;;;;;;;7.65;1.90;;;;;;;9.14;100.00;99317.16;5041312;28;20764;-72
2022/11/23 00:03:05;;;;;;;1.95;1.00;;;;;;;9.16;100.00;99318.31;5029752;28;20103;-71
2022/11/23 00:05:33;;;;;;;4.60;1.80;;;;;;;9.24;100.00;99322.50;5026206;28;20056;-73
2022/11/23 00:07:59;;;;;;;3.33;1.40;;;;;;;9.20;100.00;99319.03;5029787;28;20049;-73
2022/11/23 00:10:26;;;;;;;1.75;0.95;;;;;;;9.22;100.00;99324.13;5027381;28;20052;-73
2022/11/23 00:12:52;;;;;;;6.45;1.63;;;;;;;9.29;100.00;99326.75;5032717;28;20416;-73
2022/11/23 00:15:19;;;;;;;5.53;1.20;;;;;;;9.35;100.00;99333.38;5028116;28;20049;-74
2022/11/23 00:17:47;;;;;;;9.65;2.30;;;;;;;9.35;100.00;99325.09;5028035;28;20045;-73
2022/11/23 00:20:13;;;;;;;4.30;1.65;;;;;;;9.30;100.00;99329.09;5033902;28;20052;-74
2022/11/23 00:22:40;;;;;;;8.43;1.90;;;;;;;9.36;100.00;99327.44;5028053;28;20057;-74
2022/11/23 00:25:06;;;;;;;2.38;0.93;;;;;;;9.31;100.00;99325.13;5027894;28;20068;-74
2022/11/23 00:27:33;;;;;;;4.78;1.48;;;;;;;9.35;100.00;99328.59;5028200;28;20044;-73
2022/11/23 00:30:00;;;;;;;0.75;0.68;;;;;;;9.37;100.00;99328.97;5029365;28;20825;-73
2022/11/23 00:32:28;;;;;;;13.73;2.13;;;;;;;9.42;100.00;99325.72;5029218;28;20056;-72
2022/11/23 00:34:55;;;;;;;8.10;1.58;;;;;;;9.39;100.00;99332.06;5058487;28;20059;-72
2022/11/23 00:37:21;;;;;;;5.43;1.20;;;;;;;9.39;100.00;99339.59;5032916;28;20556;-73
2022/11/23 00:39:48;;;;;;;9.32;2.05;;;;;;;9.47;100.00;99333.53;5027914;28;20576;-71
2022/11/23 00:42:14;;;;;;;8.52;2.22;;;;;;;9.49;100.00;99328.34;5031840;28;20053;-72
2022/11/23 00:44:41;;;;;;;2.13;0.50;;;;;;;9.43;100.00;99332.81;5033732;28;20048;-73
2022/11/23 00:47:07;;;;;;;4.20;2.08;;;;;;;9.50;100.00;99332.69;5032502;28;20087;-73
2022/11/23 00:49:34;;;;;;;2.17;0.82;;;;;;;9.52;100.00;99335.03;5032440;28;20056;-72
2022/11/23 00:52:00;;;;;;;9.70;1.98;;;;;;;9.55;100.00;99334.19;5035213;28;20142;-72
2022/11/23 00:54:26;;;;;;;5.70;1.52;;;;;;;9.58;100.00;99339.63;5033423;28;20826;-73
2022/11/23 00:56:53;;;;;;;11.40;2.38;;;;;;;9.58;100.00;99338.81;5033452;28;20045;-73
2022/11/23 00:59:20;;;;;;;8.35;2.17;;;;;;;9.55;100.00;99343.22;5028800;28;20856;-75
2022/11/23 01:01:47;;;;;;;5.47;0.95;;;;;;;9.44;100.00;99339.09;5037059;28;20052;-75
2022/11/23 01:04:14;;;;;;;7.32;1.77;;;;;;;9.51;100.00;99345.28;5031732;28;20562;-72
2022/11/23 01:06:41;;;;;;;3.60;0.93;;;;;;;9.45;100.00;99346.97;5030845;28;20120;-71
2022/11/23 01:09:12;;;;;;;2.13;0.65;;;;;;;9.44;100.00;99356.44;5031364;28;20060;-75
2022/11/23 01:11:39;;;;;;;5.68;1.52;;;;;;;9.47;100.00;99355.59;5029325;28;20898;-74
2022/11/23 01:14:06;;;;;;;5.03;1.80;;;;;;;9.48;100.00;99346.13;5029176;28;20057;-72
2022/11/23 01:16:35;;;;;;;8.02;1.58;;;;;;;9.53;100.00;99359.44;5031922;28;20057;-74
2022/11/23 01:19:05;;;;;;;6.72;1.80;;;;;;;9.45;100.00;99360.00;5031061;28;20061;-75
2022/11/23 01:21:33;;;;;;;6.32;1.98;;;;;;;9.53;100.00;99364.19;5028871;28;20057;-73
2022/11/23 01:24:02;;;;;;;5.50;1.50;;;;;;;9.48;100.00;99362.69;5030908;28;20057;-72
2022/11/23 01:26:29;;;;;;;8.10;1.90;;;;;;;9.53;100.00;99359.44;5036394;28;20060;-72
2022/11/23 01:28:55;;;;;;;8.23;1.63;;;;;;;9.45;100.00;99368.28;5031869;28;20425;-75
2022/11/23 01:31:23;;;;;;;5.80;1.30;;;;;;;9.54;100.00;99374.00;5060616;28;20057;-72
2022/11/23 01:33:54;;;;;;;5.85;1.50;;;;;;;9.56;100.00;99380.69;5035505;28;20053;-71
2022/11/23 01:36:23;;;;;;;3.72;0.80;;;;;;;9.51;100.00;99377.63;5062149;28;20606;-71
2022/11/23 01:38:50;;;;;;;2.47;1.40;;;;;;;9.47;100.00;99369.41;5031698;28;20053;-72
2022/11/23 01:41:22;;;;;;;7.53;1.63;;;;;;;9.57;100.00;99378.69;5033648;28;20056;-72
2022/11/23 01:43:50;;;;;;;2.50;1.45;;;;;;;9.45;100.00;99373.81;5031429;28;20052;-73
2022/11/23 01:46:17;;;;;;;9.43;2.42;;;;;;;9.55;100.00;99381.88;5030589;28;20045;-71
2022/11/23 01:49:10;;;;;;;7.40;1.58;;;;;;;9.43;100.00;99382.50;5028955;28;20055;-73
2022/11/23 01:51:42;;;;;;;5.07;1.00;;;;;;;9.47;100.00;99385.19;5019920;28;20402;-73
2022/11/23 01:54:13;;;;;;;4.38;1.40;;;;;;;9.41;100.00;99393.19;5032457;28;20504;-72
2022/11/23 01:56:45;;;;;;;6.43;2.13;;;;;;;9.47;100.00;99380.44;5032030;28;20045;-74
2022/11/23 01:59:15;;;;;;;2.45;1.17;;;;;;;9.45;100.00;99382.84;5030069;28;20061;-75
2022/11/23 02:01:43;;;;;;;7.70;1.73;;;;;;;9.46;100.00;99384.44;5027092;28;20159;-75
2022/11/23 02:04:14;;;;;;;8.15;2.13;;;;;;;9.50;100.00;99393.41;5028966;28;20056;-73
2022/11/23 02:06:43;;;;;;;8.75;1.73;;;;;;;9.50;100.00;99392.63;5031532;28;20048;-71
2022/11/23 02:09:10;;;;;;;7.70;1.88;;;;;;;9.49;100.00;99394.59;5031069;28;20732;-72
2022/11/23 02:11:36;;;;;;;7.50;1.67;;;;;;;9.49;100.00;99388.31;5029792;28;20823;-71
2022/11/23 02:14:03;;;;;;;9.95;2.28;;;;;;;9.47;100.00;99394.25;5034667;28;20231;-73
2022/11/23 02:16:29;;;;;;;4.80;1.30;;;;;;;9.45;100.00;99395.88;5031495;28;20057;-72
2022/11/23 02:18:56;;;;;;;5.88;1.90;;;;;;;9.50;100.00;99392.63;5033421;28;20056;-71
2022/11/23 02:21:23;;;;;;;5.72;1.70;;;;;;;9.51;100.00;99394.97;5028807;28;20056;-75
2022/11/23 02:24:32;;;;;;;5.88;1.83;;;;;;;9.43;100.00;99396.31;5031751;28;20049;-71
2022/11/23 02:27:00;;;;;;;5.55;1.67;;;;;;;9.51;100.00;99396.94;5014900;28;20045;-74
2022/11/23 02:29:28;;;;;;;9.35;2.67;;;;;;;9.55;100.00;99403.19;5028118;28;20052;-75
2022/11/23 02:31:55;;;;;;;4.07;1.65;;;;;;;9.58;100.00;99399.56;5037535;28;20056;-74
2022/11/23 02:34:21;;;;;;;6.47;1.90;;;;;;;9.53;100.00;99392.59;5030039;28;20068;-74
2022/11/23 02:36:50;;;;;;;4.30;1.80;;;;;;;9.54;100.00;99396.91;5036148;28;20049;-73
2022/11/23 02:39:36;;;;;;;5.55;1.90;;;;;;;9.60;100.00;99403.50;5032330;28;20053;-73
2022/11/23 02:42:04;;;;;;;6.57;1.55;;;;;;;9.61;100.00;99402.28;5035624;28;20048;-72
2022/11/23 02:44:36;;;;;;;4.82;1.70;;;;;;;9.59;100.00;99392.88;5034062;28;20059;-73
2022/11/23 02:47:04;;;;;;;7.53;1.88;;;;;;;9.64;100.00;99401.44;5028277;28;20615;-72
2022/11/23 02:49:31;;;;;;;14.68;2.63;;;;;;;9.68;100.00;99404.91;5034188;28;20170;-73
2022/11/23 02:51:58;;;;;;;14.85;2.40;;;;;;;9.70;100.00;99407.25;5028996;28;20206;-73
2022/11/23 02:54:25;;;;;;;6.35;1.67;;;;;;;9.66;100.00;99410.06;5038055;28;20083;-70
2022/11/23 02:56:51;;;;;;;9.40;1.70;;;;;;;9.69;100.00;99414.75;5049517;28;20098;-73
2022/11/23 02:59:19;;;;;;;4.00;0.65;;;;;;;9.65;100.00;99405.75;5049005;28;20052;-71
2022/11/23 03:01:46;;;;;;;6.45;2.08;;;;;;;9.78;100.00;99411.44;5047748;28;20048;-71
2022/11/23 03:04:13;;;;;;;5.47;1.63;;;;;;;9.83;100.00;99406.19;5047812;28;20059;-72
2022/11/23 03:06:41;;;;;;;3.67;1.15;;;;;;;9.81;100.00;99403.09;5048785;28;20103;-71
2022/11/23 03:09:08;;;;;;;7.82;1.50;;;;;;;9.85;100.00;99420.38;5052202;28;20049;-74
2022/11/23 03:11:34;;;;;;;10.88;2.85;;;;;;;9.81;100.00;99410.59;5048014;28;20048;-71
2022/11/23 03:14:00;;;;;;;1.30;0.60;;;;;;;9.81;100.00;99414.16;5048851;28;20049;-72
2022/11/23 03:16:27;;;;;;;5.57;1.63;;;;;;;9.91;100.00;99421.47;5052597;28;20053;-71
2022/11/23 03:18:54;;;;;;;5.70;2.30;;;;;;;9.92;100.00;99413.94;5054536;28;20052;-71
2022/11/23 03:21:20;;;;;;;5.93;1.63;;;;;;;9.91;100.00;99407.66;5049469;28;20079;-71
2022/11/23 03:23:47;;;;;;;5.38;1.35;;;;;;;9.93;100.00;99416.28;5048145;28;20679;-73
2022/11/23 03:26:13;;;;;;;4.38;0.90;;;;;;;9.90;100.00;99417.16;5048698;28;20056;-72
2022/11/23 03:28:39;;;;;;;2.50;1.40;;;;;;;9.89;100.00;99414.81;5047867;28;20048;-71
2022/11/23 03:31:06;;;;;;;4.55;1.77;;;;;;;10.02;100.00;99419.25;5047823;28;20064;-73
2022/11/23 03:33:32;;;;;;;3.95;1.80;;;;;;;9.97;100.00;99417.00;5047638;28;20056;-71
2022/11/23 03:35:59;;;;;;;12.02;2.03;;;;;;;10.07;100.00;99418.81;5049099;28;20064;-71
2022/11/23 03:38:26;;;;;;;10.40;2.38;;;;;;;10.07;100.00;99421.56;5048231;28;20053;-73
2022/11/23 03:40:52;;;;;;;0.98;0.93;;;;;;;10.02;100.00;99424.78;5048022;28;20057;-72
2022/11/23 03:43:20;;;;;;;4.25;0.90;;;;;;;10.08;100.00;99431.41;5047701;28;20045;-71
2022/11/23 03:45:46;;;;;;;2.83;1.02;;;;;;;10.07;100.00;99431.84;5047888;28;20045;-72
2022/11/23 03:48:13;;;;;;;5.68;1.33;;;;;;;10.05;100.00;99429.47;5048531;28;20061;-71
2022/11/23 03:50:39;;;;;;;6.75;1.92;;;;;;;9.95;100.00;99433.22;5047654;28;20045;-70
2022/11/23 03:53:06;;;;;;;5.40;1.40;;;;;;;9.96;100.00;99439.53;5047387;28;20454;-71
2022/11/23 03:55:33;;;;;;;5.00;1.00;;;;;;;9.82;100.00;99435.03;5048535;28;20052;-71
2022/11/23 03:58:00;;;;;;;6.32;1.83;;;;;;;9.82;100.00;99426.75;5049927;28;20048;-71
2022/11/23 04:00:27;;;;;;;9.75;1.83;;;;;;;9.79;100.00;99435.88;5052031;28;20044;-71
2022/11/23 04:02:54;;;;;;;2.55;1.17;;;;;;;9.66;100.00;99429.41;5049972;28;20128;-71
2022/11/23 04:05:21;;;;;;;8.88;2.50;;;;;;;9.67;100.00;99442.03;5047843;28;20056;-72
2022/11/23 04:07:48;;;;;;;8.77;1.35;;;;;;;9.64;100.00;99431.03;5048339;28;20052;-71
2022/11/23 04:10:17;;;;;;;14.45;2.22;;;;;;;9.60;100.00;99435.84;5047341;28;20510;-72
2022/11/23 04:12:43;;;;;;;5.78;2.08;;;;;;;9.55;100.00;99431.56;5050030;28;20402;-72
2022/11/23 04:15:11;;;;;;;5.50;2.00;;;;;;;9.43;100.00;99436.94;5049526;28;20068;-69
2022/11/23 04:17:37;;;;;;;6.20;1.92;;;;;;;9.47;100.00;99432.91;5054238;28;20051;-71
2022/11/23 04:20:05;;;;;;;10.27;2.67;;;;;;;9.47;100.00;99435.66;5054168;28;20131;-73
2022/11/23 04:22:31;;;;;;;7.53;2.65;;;;;;;9.44;100.00;99439.28;5054962;28;20056;-71
2022/11/23 04:24:57;;;;;;;9.48;2.17;;;;;;;9.41;100.00;99433.78;5054330;28;20056;-72
2022/11/23 04:27:24;;;;;;;6.00;2.13;;;;;;;9.44;100.00;99432.97;5057534;28;20067;-71
2022/11/23 04:29:50;;;;;;;12.60;3.30;;;;;;;9.42;100.00;99429.84;5054292;28;20059;-72
2022/11/23 04:32:17;;;;;;;12.57;3.40;;;;;;;9.42;100.00;99438.13;5054241;28;20049;-71
2022/11/23 04:34:43;;;;;;;8.88;2.75;;;;;;;9.43;100.00;99429.44;5054740;28;20429;-71
2022/11/23 04:37:10;;;;;;;15.30;2.83;;;;;;;9.42;100.00;99435.38;5054457;28;20052;-75
2022/11/23 04:39:39;;;;;;;14.70;3.78;;;;;;;9.42;100.00;99436.13;5059155;28;20045;-71
2022/11/23 04:42:05;;;;;;;12.75;2.95;;;;;;;9.41;100.00;99440.09;5054493;28;20053;-70
2022/11/23 04:44:32;;;;;;;12.00;2.70;;;;;;;9.45;100.00;99435.28;5053655;28;20063;-73
2022/11/23 04:46:58;;;;;;;16.35;3.10;;;;;;;9.45;100.00;99445.59;5054201;28;20071;-72
2022/11/23 04:49:25;;;;;;;6.28;1.88;;;;;;;9.40;100.00;99443.28;5054478;28;20052;-70
2022/11/23 04:51:51;;;;;;;16.50;3.17;;;;;;;9.41;100.00;99444.84;5053549;28;20049;-72
2022/11/23 04:54:18;;;;;;;3.80;1.15;;;;;;;9.32;100.00;99453.66;5054353;28;20056;-71
2022/11/23 04:56:44;;;;;;;3.83;1.33;;;;;;;9.38;100.00;99448.47;5054395;28;20052;-71
2022/11/23 04:59:11;;;;;;;9.02;2.33;;;;;;;9.36;100.00;99446.13;5053899;28;20114;-72
2022/11/23 05:01:37;;;;;;;8.70;2.90;;;;;;;9.43;100.00;99443.25;5053699;28;20052;-72
2022/11/23 05:04:04;;;;;;;11.25;2.50;;;;;;;9.41;100.00;99450.34;5054139;28;20064;-71
2022/11/23 05:06:30;;;;;;;14.25;4.32;;;;;;;9.38;100.00;99451.97;5054916;28;20045;-70
2022/11/23 05:08:57;;;;;;;10.52;2.67;;;;;;;9.38;100.00;99457.50;5058626;28;20049;-73
2022/11/23 05:11:23;;;;;;;10.25;3.40;;;;;;;9.42;100.00;99451.94;5053686;28;20060;-72
2022/11/23 05:13:50;;;;;;;2.13;1.17;;;;;;;9.37;100.00;99455.16;5053843;28;20416;-71
2022/11/23 05:16:16;;;;;;;2.55;1.38;;;;;;;9.39;100.00;99453.53;5052898;28;20057;-72
2022/11/23 05:18:43;;;;;;;8.63;1.80;;;;;;;9.34;100.00;99445.75;5053801;28;20056;-73
2022/11/23 05:21:09;;;;;;;0.43;0.43;;;;;;;9.36;100.00;99450.84;5055417;28;20060;-72
2022/11/23 05:23:36;;;;;;;6.38;2.22;;;;;;;9.32;100.00;99436.34;5053937;28;20052;-73
2022/11/23 05:26:02;;;;;;;8.07;2.67;;;;;;;9.38;100.00;99454.75;5053672;28;20057;-72
2022/11/23 05:28:29;;;;;;;13.95;3.15;;;;;;;9.36;100.00;99446.13;5050523;28;20045;-73
2022/11/23 05:31:06;;;;;;;10.98;2.92;;;;;;;9.42;100.00;99451.94;5049611;28;20053;-71
2022/11/23 05:33:33;;;;;;;12.45;3.38;;;;;;;9.40;100.00;99446.84;5050754;28;20048;-71
2022/11/23 05:35:59;;;;;;;9.73;2.50;;;;;;;9.37;100.00;99458.72;5050953;28;20045;-71
2022/11/23 05:38:26;;;;;;;16.25;2.95;;;;;;;9.41;100.00;99453.91;5050474;28;20063;-71
2022/11/23 05:40:53;;;;;;;14.32;3.30;;;;;;;9.39;100.00;99450.78;5050349;28;20052;-73
2022/11/23 05:43:19;;;;;;;10.13;2.63;;;;;;;9.38;100.00;99457.50;5049936;28;20056;-70
2022/11/23 05:45:45;;;;;;;9.23;2.58;;;;;;;9.35;100.00;99458.34;5050630;28;20056;-71
2022/11/23 05:48:12;;;;;;;13.00;3.10;;;;;;;9.37;100.00;99455.94;5050779;28;20044;-69
2022/11/23 05:50:38;;;;;;;14.50;3.22;;;;;;;9.35;100.00;99458.34;5050912;28;20056;-73
2022/11/23 05:53:05;;;;;;;15.50;3.20;;;;;;;9.37;100.00;99455.16;5048312;28;20045;-71
2022/11/23 05:55:31;;;;;;;4.45;1.90;;;;;;;9.30;100.00;99456.06;5050923;28;20429;-73
2022/11/23 05:57:58;;;;;;;13.63;3.42;;;;;;;9.35;100.00;99457.56;5049877;28;20505;-71
2022/11/23 06:00:24;;;;;;;16.70;3.85;;;;;;;9.31;100.00;99460.38;5049577;28;20072;-71
2022/11/23 06:02:51;;;;;;;12.20;3.10;;;;;;;9.34;100.00;99459.53;5055398;28;20559;-73
2022/11/23 06:05:17;;;;;;;11.82;2.90;;;;;;;9.34;100.00;99456.78;5050052;28;20064;-70
2022/11/23 06:07:44;;;;;;;12.02;2.90;;;;;;;9.31;100.00;99454.84;5048902;28;20049;-72
2022/11/23 06:10:11;;;;;;;10.32;2.30;;;;;;;9.26;100.00;99446.28;5049455;28;20429;-73
2022/11/23 06:12:37;;;;;;;13.32;2.85;;;;;;;9.33;100.00;99458.00;5050036;28;20067;-71
2022/11/23 06:15:04;;;;;;;8.98;2.25;;;;;;;9.31;100.00;99460.38;5050473;28;20067;-71
2022/11/23 06:17:31;;;;;;;8.02;2.40;;;;;;;9.35;100.00;99461.09;5056262;28;20049;-73
2022/11/23 06:19:57;;;;;;;11.30;2.00;;;;;;;9.28;100.00;99463.97;5049005;28;20075;-72
2022/11/23 06:22:24;;;;;;;18.23;3.17;;;;;;;9.32;100.00;99464.69;5049254;28;20076;-71
2022/11/23 06:24:50;;;;;;;10.57;3.50;;;;;;;9.31;100.00;99460.38;5049252;28;20749;-71
2022/11/23 06:27:16;;;;;;;18.00;4.28;;;;;;;9.34;100.00;99462.31;5049623;28;20595;-71
2022/11/23 06:29:45;;;;;;;6.50;2.75;;;;;;;9.36;100.00;99459.91;5052648;28;20083;-73
2022/11/23 06:32:12;;;;;;;8.43;1.90;;;;;;;9.32;100.00;99469.44;5041151;28;20056;-71
2022/11/23 06:34:38;;;;;;;14.35;2.80;;;;;;;9.37;100.00;99461.47;5049566;28;20449;-72
2022/11/23 06:37:05;;;;;;;7.95;2.22;;;;;;;9.36;100.00;99461.88;5049710;28;20057;-72
2022/11/23 06:39:32;;;;;;;8.82;2.33;;;;;;;9.34;100.00;99467.81;5047733;28;20048;-74
2022/11/23 06:41:59;;;;;;;5.45;2.10;;;;;;;9.34;100.00;99467.81;5048801;28;20052;-71
2022/11/23 06:44:45;;;;;;;10.65;2.63;;;;;;;9.38;100.00;99471.31;5043540;28;20060;-72
2022/11/23 06:47:11;;;;;;;12.27;2.80;;;;;;;9.40;100.00;99465.38;5049581;28;20057;-71
2022/11/23 06:49:43;;;;;;;10.52;2.58;;;;;;;9.39;100.00;99467.34;5048443;28;20654;-72
2022/11/23 06:52:10;;;;;;;12.40;2.60;;;;;;;9.34;100.00;99467.03;5049205;28;20067;-73
2022/11/23 06:54:36;;;;;;;18.67;3.55;;;;;;;9.36;100.00;99462.69;5052935;28;20053;-73
2022/11/23 06:57:06;;;;;;;5.45;1.73;;;;;;;9.30;100.00;99461.59;5049558;28;20057;-71
2022/11/23 06:59:33;;;;;;;10.00;3.60;;;;;;;9.31;100.00;99474.19;5040811;28;20418;-73
2022/11/23 07:02:00;;;;;;;15.77;2.47;;;;;;;9.36;100.00;99473.72;5047818;28;20056;-74
2022/11/23 07:04:26;;;;;;;2.08;1.13;;;;;;;9.36;100.00;99483.97;5049200;28;20048;-70
2022/11/23 07:06:53;;;;;;;5.85;2.22;;;;;;;9.41;100.00;99480.72;5049357;28;20077;-71
2022/11/23 07:09:19;;;;;;;3.40;1.08;;;;;;;9.32;100.00;99488.78;5047255;28;20663;-71
2022/11/23 07:11:46;;;;;;;14.63;3.40;;;;;;;9.42;100.00;99483.06;5046860;28;20060;-73
2022/11/23 07:14:12;;;;;;;6.13;1.92;;;;;;;9.37;100.00;99482.75;5048693;28;20144;-72
2022/11/23 07:16:39;;;;;;;13.23;3.17;;;;;;;9.45;100.00;99478.72;5048005;28;20049;-72
2022/11/23 07:19:05;;;;;;;7.57;2.28;;;;;;;9.41;100.00;99492.56;5049325;28;20053;-72
2022/11/23 07:21:32;;;;;;;6.68;1.17;;;;;;;9.42;100.00;99491.34;5047872;28;20498;-71
2022/11/23 07:23:58;;;;;;;5.13;1.30;;;;;;;9.38;100.00;99496.16;5048412;28;20056;-70
2022/11/23 07:26:25;;;;;;;14.05;2.88;;;;;;;9.48;100.00;99502.69;5047804;28;20052;-71
2022/11/23 07:28:51;;;;;;;12.30;2.60;;;;;;;9.45;100.00;99498.03;5048246;28;20060;-72
2022/11/23 07:31:18;;;;;;;12.18;3.25;;;;;;;9.44;100.00;99500.00;5047417;28;20064;-72
2022/11/23 07:33:45;;;;;;;6.45;1.77;;;;;;;9.45;100.00;99501.56;5048136;28;20425;-72
2022/11/23 07:36:12;;;;;;;15.30;3.00;;;;;;;9.45;100.00;99500.78;5047384;28;20080;-72
2022/11/23 07:38:39;;;;;;;2.53;1.48;;;;;;;9.35;100.00;99508.03;5046579;28;20394;-71
2022/11/23 07:41:05;;;;;;;8.45;2.10;;;;;;;9.46;100.00;99503.13;5044499;28;21616;-73
2022/11/23 07:43:32;;;;;;;13.85;3.28;;;;;;;9.49;100.00;99507.03;5055899;28;20051;-71
2022/11/23 07:45:58;;;;;;;18.30;3.35;;;;;;;9.44;100.00;99510.25;5050909;28;20053;-71
2022/11/23 07:48:25;;;;;;;14.07;2.65;;;;;;;9.41;100.00;99517.41;5047083;28;20143;-72
2022/11/23 07:50:55;;;;;;;10.13;2.08;;;;;;;9.46;100.00;99514.19;5045912;28;20052;-72
2022/11/23 07:53:22;;;;;;;12.30;3.53;;;;;;;9.50;100.00;99514.91;5048702;28;20103;-73
2022/11/23 07:55:49;;;;;;;12.20;2.40;;;;;;;9.53;100.00;99514.06;5047561;28;20040;-74
2022/11/23 07:58:15;;;;;;;10.93;2.30;;;;;;;9.57;100.00;99514.00;5049388;28;20052;-71
2022/11/23 08:00:42;;;;;;;1.02;0.77;;;;;;;9.53;100.00;99521.56;5046969;28;20405;-74
2022/11/23 08:03:13;;;;;;;13.10;2.40;;;;;;;9.66;100.00;99515.00;5048206;28;20575;-74
2022/11/23 08:05:56;;;;;;;12.55;1.88;;;;;;;9.64;100.00;99525.72;5047941;28;20057;-74
2022/11/23 08:08:22;;;;;;;8.15;1.77;;;;;;;9.69;100.00;99516.94;5047835;28;20048;-74
2022/11/23 08:10:49;;;;;;;5.82;1.60;;;;;;;9.71;100.00;99527.56;5052205;28;20053;-75
2022/11/23 08:13:20;;;;;;;11.30;3.13;;;;;;;9.78;100.00;99530.22;5042819;28;20132;-75
2022/11/23 08:15:47;;;;;;;6.70;2.10;;;;;;;9.79;100.00;99523.50;5047594;28;20334;-74
2022/11/23 08:18:20;;;;;;;14.65;2.33;;;;;;;9.88;100.00;99523.72;5047721;28;20041;-74
2022/11/23 08:20:47;;;;;;;7.50;1.88;;;;;;;9.80;100.00;99516.78;5055902;28;20049;-75
2022/11/23 08:23:13;;;;;;;10.95;2.00;;;;;;;9.87;100.00;99516.66;5048178;28;20090;-71
2022/11/23 08:25:40;;;;;;;4.45;1.05;;;;;;;9.83;100.00;99522.22;5049558;28;20045;-73
2022/11/23 08:28:06;;;;;;;8.63;2.00;;;;;;;9.98;100.00;99525.53;5053967;28;20059;-73
2022/11/23 08:30:34;;;;;;;7.38;1.77;;;;;;;9.91;100.00;99531.97;5046223;28;20044;-73
2022/11/23 08:33:04;;;;;;;3.90;0.93;;;;;;;10.01;100.00;99527.44;5047583;28;20717;-72
2022/11/23 08:35:38;;;;;;;6.10;1.88;;;;;;;10.08;100.00;99528.16;5046451;28;20052;-76
2022/11/23 08:38:07;;;;;;;8.70;2.03;;;;;;;10.09;100.00;99538.00;5047707;28;20044;-74
2022/11/23 08:40:34;;;;;;;6.20;1.55;;;;;;;10.13;100.00;99524.88;5046223;28;20071;-73
2022/11/23 08:43:01;;;;;;;5.55;1.73;;;;;;;10.16;100.00;99532.31;5079523;28;20056;-72
2022/11/23 08:45:28;;;;;;;3.35;0.93;;;;;;;10.23;100.00;99526.66;5046940;28;20052;-73
2022/11/23 08:47:59;;;;;;;8.13;1.45;;;;;;;10.38;100.00;99538.25;5047843;28;20068;-71
2022/11/23 08:50:28;;;;;;;10.75;1.90;;;;;;;10.43;100.00;99533.00;5046351;28;20666;-71
2022/11/23 08:52:58;;;;;;;9.48;1.92;;;;;;;10.43;100.00;99541.28;5047757;28;20059;-74
2022/11/23 08:55:26;;;;;;;10.52;1.75;;;;;;;10.60;100.00;99539.41;5045192;28;20053;-73
2022/11/23 08:57:56;;;;;;;4.78;1.52;;;;;;;10.63;100.00;99546.06;5041726;28;20056;-75
2022/11/23 09:00:24;;;;;;;12.13;1.92;;;;;;;10.68;100.00;99540.03;5045800;28;20052;-74
2022/11/23 09:02:51;;;;;;;14.10;2.20;;;;;;;10.83;100.00;99541.31;5046011;28;20053;-76
2022/11/23 09:05:18;;;;;;;7.22;1.83;;;;;;;10.95;100.00;99551.72;5051012;28;20053;-73
2022/11/23 09:07:44;;;;;;;3.22;0.80;;;;;;;11.02;100.00;99534.97;5050311;28;20045;-74
2022/11/23 09:10:11;;;;;;;7.60;1.45;;;;;;;11.07;100.00;99549.06;5052103;28;20071;-72
2022/11/23 09:12:44;;;;;;;12.75;2.88;;;;;;;11.23;100.00;99534.50;5052355;28;20106;-75
2022/11/23 09:15:11;;;;;;;9.48;1.70;;;;;;;11.32;100.00;99532.72;5068765;28;20053;-72
2022/11/23 09:17:37;;;;;;;9.68;1.67;;;;;;;11.41;100.00;99538.41;5049359;28;20055;-75
2022/11/23 09:20:04;;;;;;;10.52;1.73;;;;;;;11.43;100.00;99535.22;5051664;28;20424;-73
2022/11/23 09:22:31;;;;;;;5.93;1.45;;;;;;;11.35;100.00;99539.38;5048813;28;20056;-72
2022/11/23 09:24:57;;;;;;;7.18;1.58;;;;;;;11.35;100.00;99553.22;5072665;28;20060;-75
2022/11/23 09:27:24;;;;;;;12.95;1.92;;;;;;;11.35;100.00;99533.84;5051192;28;20068;-74
2022/11/23 09:29:51;;;;;;;10.90;2.10;;;;;;;11.46;100.00;99545.44;5052716;28;20659;-74
2022/11/23 09:32:17;;;;;;;14.35;2.35;;;;;;;11.27;100.00;99547.03;5064440;28;20066;-74
2022/11/23 09:34:44;;;;;;;13.93;2.38;;;;;;;11.51;100.00;99550.47;5067603;28;20090;-71
2022/11/23 09:37:11;;;;;;;3.35;1.35;;;;;;;11.51;100.00;99556.00;5070279;28;20504;-74
2022/11/23 09:39:38;;;;;;;8.32;0.90;;;;;;;11.52;100.00;99552.03;5065351;28;20052;-73
2022/11/23 09:42:32;;;;;;;6.50;2.15;;;;;;;11.51;100.00;99551.22;5054049;28;20052;-72
2022/11/23 09:45:08;;;;;;;3.20;1.85;;;;;;;11.59;100.00;99552.66;5054623;28;20056;-75
2022/11/23 09:47:40;;;;;;;4.88;1.08;;;;;;;11.69;100.00;99548.88;5049252;28;20063;-72
2022/11/23 09:50:06;;;;;;;4.68;0.90;;;;;;;11.78;100.00;99549.03;5048498;28;20053;-73
2022/11/23 09:52:35;;;;;;;1.65;0.90;;;;;;;11.79;100.00;99561.69;5049369;28;20052;-73
2022/11/23 09:55:15;;;;;;;1.35;1.00;;;;;;;11.76;100.00;99559.00;5048548;28;20080;-73
2022/11/23 09:57:45;;;;;;;9.13;1.35;;;;;;;11.76;100.00;99559.00;5051738;28;20422;-74
2022/11/23 10:00:16;;;;;;;4.97;1.17;;;;;;;11.86;100.00;99561.53;5049612;28;20127;-74
2022/11/23 10:02:43;;;;;;;6.38;1.23;;;;;;;11.90;100.00;99562.22;5039821;28;20136;-75
2022/11/23 10:05:16;;;;;;;7.85;1.98;;;;;;;12.05;100.00;99562.63;5035026;28;20049;-74
2022/11/23 10:08:05;;;;;;;13.75;1.92;;;;;;;12.09;100.00;99557.78;5040142;28;20048;-76
2022/11/23 10:10:48;;;;;;;6.90;1.83;;;;;;;12.03;100.00;99559.50;5041979;28;20670;-76
2022/11/23 10:13:17;;;;;;;5.80;1.65;;;;;;;12.16;100.00;99569.47;5048088;28;20052;-73
2022/11/23 10:16:14;;;;;;;5.25;1.65;;;;;;;12.10;100.00;99560.13;5048403;28;20100;-72
2022/11/23 10:19:05;;;;;;;7.00;1.85;;;;;;;12.07;100.00;99560.97;5044030;28;20779;-76
2022/11/23 10:21:52;;;;;;;6.00;1.17;;;;;;;12.28;100.00;99554.88;5057695;28;20057;-73
2022/11/23 10:24:23;;;;;;;6.30;1.58;;;;;;;12.21;99.07;99548.72;5052061;28;20144;-76
2022/11/23 10:26:50;;;;;;;7.90;1.83;;;;;;;12.23;96.72;99566.53;5064623;28;20057;-71
2022/11/23 10:29:34;;;;;;;2.60;1.42;;;;;;;12.38;96.46;99553.03;5055438;28;20426;-72
2022/11/23 10:32:00;;;;;;;13.90;2.50;;;;;;;12.44;95.01;99554.84;5060676;28;20053;-74
2022/11/23 10:34:55;;;;;;;3.20;1.17;;;;;;;12.80;96.53;99551.88;5050614;28;20057;-73
2022/11/23 10:37:21;;;;;;;11.02;1.65;;;;;;;12.89;94.33;99566.66;5062299;28;20060;-74
2022/11/23 10:39:48;;;;;;;11.50;2.20;;;;;;;12.83;90.16;99568.41;5052557;28;20040;-75
2022/11/23 10:42:43;;;;;;;6.70;1.00;;;;;;;14.36;77.31;99579.94;5045325;28;20059;-77
2022/11/23 10:45:24;;;;;;;6.13;1.35;;;;;;;16.43;64.99;99552.41;5052457;28;20048;-77
2022/11/23 10:47:58;;;;;;;8.38;2.22;;;;;;;16.58;62.35;99542.16;5050369;28;20055;-74
2022/11/23 10:50:26;;;;;;;9.82;1.58;;;;;;;17.24;55.33;99553.06;5054494;28;20045;-77
2022/11/23 10:52:59;;;;;;;5.97;1.27;;;;;;;17.82;51.85;99558.34;5048311;28;20522;-77
2022/11/23 10:55:30;;;;;;;10.98;1.80;;;;;;;18.49;51.59;99536.13;5048538;28;21249;-74
2022/11/23 10:57:57;;;;;;;5.28;1.52;;;;;;;19.62;49.47;99525.97;5049781;28;20051;-73
2022/11/23 11:00:26;;;;;;;11.20;2.20;;;;;;;19.11;48.44;99530.41;5046676;28;20056;-74
2022/11/23 11:02:58;;;;;;;2.65;0.80;;;;;;;18.05;48.81;99534.41;5038257;28;20064;-73
2022/11/23 11:05:37;;;;;;;3.20;1.10;;;;;;;18.39;47.59;99537.44;5040830;28;20074;-76
2022/11/23 11:08:29;;;;;;;11.23;1.90;;;;;;;18.98;47.81;99536.31;5049367;28;20095;-74
2022/11/23 11:10:58;;;;;;;8.38;2.22;;;;;;;18.35;47.29;99553.63;5050435;28;20486;-72
2022/11/23 11:13:44;;;;;;;5.93;1.98;;;;;;;18.03;47.60;99526.50;5043048;28;20057;-75
2022/11/23 11:16:29;;;;;;;6.50;1.52;;;;;;;18.10;48.44;99525.34;5049143;28;20053;-76
2022/11/23 11:18:56;;;;;;;6.80;1.20;;;;;;;18.33;46.12;99524.56;5064519;28;20082;-73
2022/11/23 11:21:30;;;;;;;1.42;0.60;;;;;;;19.38;43.06;99518.94;5053181;28;20048;-74
2022/11/23 11:24:01;;;;;;;3.85;1.23;;;;;;;19.22;43.07;99525.00;5049828;28;20139;-74
2022/11/23 11:26:30;;;;;;;7.80;1.50;;;;;;;19.05;42.98;99504.31;5047852;28;20052;-74
2022/11/23 11:29:01;;;;;;;4.28;1.23;;;;;;;19.15;42.96;99536.59;5050959;28;20053;-75
2022/11/23 11:31:30;;;;;;;6.13;1.13;;;;;;;18.72;43.03;99512.13;5048259;28;20051;-75
2022/11/23 11:34:16;;;;;;;4.13;1.20;;;;;;;17.61;45.04;99504.19;5053947;28;20466;-75
2022/11/23 11:36:51;;;;;;;4.43;1.50;;;;;;;18.56;43.30;99507.75;5059233;28;20044;-73